createdAt,value
2023-02-27T00:00:01.702Z,49.51
2023-02-27T00:02:28.769Z,49.12
2023-02-27T00:04:57.928Z,49.11
2023-02-27T00:07:26.212Z,49.43
2023-02-27T00:09:53.403Z,49.40
2023-02-27T00:12:20.324Z,49.26
2023-02-27T00:14:47.417Z,49.17
2023-02-27T00:17:14.201Z,49.32
2023-02-27T00:19:41.256Z,49.49
2023-02-27T00:22:08.062Z,49.45
2023-02-27T00:24:35.192Z,49.50
2023-02-27T00:27:01.961Z,49.39
2023-02-27T00:29:29.061Z,49.53
2023-02-27T00:31:55.926Z,49.28
2023-02-27T00:34:23.132Z,49.23
2023-02-27T00:36:49.887Z,49.23
2023-02-27T00:39:16.974Z,49.53
2023-02-27T00:41:43.756Z,49.04
2023-02-27T00:44:10.889Z,48.98
2023-02-27T00:46:37.666Z,49.28
2023-02-27T00:49:05.233Z,49.33
2023-02-27T00:51:31.971Z,49.07
2023-02-27T00:53:59.052Z,49.13
2023-02-27T00:56:26.113Z,49.09
2023-02-27T00:58:53.192Z,49.27
2023-02-27T01:01:20.024Z,49.26
2023-02-27T01:03:47.096Z,49.14
2023-02-27T01:06:13.911Z,49.19
2023-02-27T01:08:41.142Z,49.16
2023-02-27T01:11:07.916Z,49.05
2023-02-27T01:13:34.994Z,48.91
2023-02-27T01:16:01.893Z,49.19
2023-02-27T01:18:29.059Z,49.07
2023-02-27T01:20:56.025Z,49.24
2023-02-27T01:23:23.226Z,49.19
2023-02-27T01:25:50.090Z,49.10
2023-02-27T01:28:17.153Z,49.11
2023-02-27T01:30:44.000Z,48.94
2023-02-27T01:33:11.098Z,48.95
2023-02-27T01:35:37.880Z,49.10
2023-02-27T01:38:04.996Z,49.27
2023-02-27T01:40:38.551Z,49.17
2023-02-27T01:43:06.068Z,49.45
2023-02-27T01:45:43.227Z,49.29
2023-02-27T01:48:31.367Z,49.32
2023-02-27T01:51:05.254Z,49.20
2023-02-27T01:53:33.709Z,49.21
2023-02-27T01:56:07.531Z,49.42
2023-02-27T01:58:34.661Z,49.18
2023-02-27T02:01:01.435Z,49.07
2023-02-27T02:03:34.678Z,49.24
2023-02-27T02:06:02.427Z,49.01
2023-02-27T02:08:30.866Z,49.40
2023-02-27T02:10:58.050Z,49.02
2023-02-27T02:13:25.349Z,49.41
2023-02-27T02:16:16.509Z,49.34
2023-02-27T02:18:54.147Z,49.25
2023-02-27T02:21:59.306Z,49.58
2023-02-27T02:25:03.541Z,49.23
2023-02-27T02:28:02.161Z,49.57
2023-02-27T02:30:59.152Z,49.32
2023-02-27T02:33:58.490Z,49.57
2023-02-27T02:36:56.698Z,49.77
2023-02-27T02:39:52.406Z,49.42
2023-02-27T02:42:44.841Z,49.52
2023-02-27T02:45:31.606Z,49.58
2023-02-27T02:48:18.821Z,49.20
2023-02-27T02:51:08.189Z,49.30
2023-02-27T02:53:39.426Z,49.68
2023-02-27T02:56:44.307Z,49.62
2023-02-27T02:59:22.774Z,49.53
2023-02-27T03:01:52.596Z,49.53
2023-02-27T03:04:42.077Z,49.78
2023-02-27T03:07:08.855Z,49.37
2023-02-27T03:09:38.649Z,49.76
2023-02-27T03:12:06.164Z,49.53
2023-02-27T03:14:37.865Z,49.60
2023-02-27T03:17:08.046Z,49.29
2023-02-27T03:19:42.591Z,49.53
2023-02-27T03:22:11.217Z,49.60
2023-02-27T03:24:48.068Z,49.53
2023-02-27T03:27:14.831Z,49.67
2023-02-27T03:29:50.262Z,49.65
2023-02-27T03:32:19.121Z,49.46
2023-02-27T03:34:46.403Z,49.36
2023-02-27T03:37:16.871Z,49.46
2023-02-27T03:39:52.401Z,49.46
2023-02-27T03:42:22.024Z,49.25
2023-02-27T03:44:56.333Z,49.34
2023-02-27T03:47:23.172Z,49.26
2023-02-27T03:49:53.015Z,49.15
2023-02-27T03:52:20.412Z,49.24
2023-02-27T03:55:00.420Z,49.03
2023-02-27T03:57:27.363Z,49.13
2023-02-27T03:59:54.517Z,49.05
2023-02-27T04:02:21.241Z,49.02
2023-02-27T04:04:48.270Z,48.95
2023-02-27T04:07:36.957Z,49.32
2023-02-27T04:10:21.736Z,49.48
2023-02-27T04:13:03.732Z,49.20
2023-02-27T04:16:05.986Z,49.21
2023-02-27T04:18:51.684Z,49.04
2023-02-27T04:21:33.956Z,49.00
2023-02-27T04:24:12.976Z,49.13
2023-02-27T04:26:47.168Z,49.15
2023-02-27T04:29:16.854Z,49.21
2023-02-27T04:32:03.995Z,49.29
2023-02-27T04:34:42.604Z,49.07
2023-02-27T04:37:47.758Z,49.46
2023-02-27T04:40:34.815Z,49.54
2023-02-27T04:43:01.893Z,49.28
2023-02-27T04:45:28.696Z,49.32
2023-02-27T04:48:01.002Z,49.40
2023-02-27T04:50:50.169Z,49.38
2023-02-27T04:53:42.124Z,49.16
2023-02-27T04:56:12.127Z,49.06
2023-02-27T04:58:45.363Z,49.37
2023-02-27T05:01:16.460Z,49.31
2023-02-27T05:03:46.211Z,49.44
2023-02-27T05:06:12.979Z,49.17
2023-02-27T05:09:01.628Z,49.23
2023-02-27T05:11:34.417Z,49.10
2023-02-27T05:14:13.798Z,49.18
2023-02-27T05:16:47.719Z,49.41
2023-02-27T05:19:14.885Z,49.21
2023-02-27T05:22:10.820Z,49.30
2023-02-27T05:24:56.349Z,49.46
2023-02-27T05:27:30.655Z,49.33
2023-02-27T05:30:05.105Z,49.39
2023-02-27T05:32:44.031Z,49.42
2023-02-27T05:35:22.518Z,49.51
2023-02-27T05:37:49.411Z,49.41
2023-02-27T05:40:19.990Z,49.38
2023-02-27T05:43:18.160Z,49.30
2023-02-27T05:45:47.208Z,49.26
2023-02-27T05:48:17.823Z,49.42
2023-02-27T05:50:47.565Z,49.92
2023-02-27T05:53:15.400Z,49.88
2023-02-27T05:55:48.693Z,49.88
2023-02-27T05:58:23.978Z,49.65
2023-02-27T06:00:58.733Z,49.71
2023-02-27T06:03:26.430Z,49.78
2023-02-27T06:05:53.593Z,49.93
2023-02-27T06:08:20.943Z,49.88
2023-02-27T06:10:49.846Z,49.02
2023-02-27T06:13:20.037Z,49.67
2023-02-27T06:15:47.193Z,49.72
2023-02-27T06:18:14.995Z,49.75
2023-02-27T06:20:42.299Z,49.56
2023-02-27T06:23:09.178Z,49.64
2023-02-27T06:25:36.443Z,49.43
2023-02-27T06:28:03.349Z,49.32
2023-02-27T06:30:30.523Z,49.48
2023-02-27T06:32:57.513Z,49.32
2023-02-27T06:35:24.614Z,49.53
2023-02-27T06:37:51.403Z,49.60
2023-02-27T06:40:19.228Z,49.28
2023-02-27T06:42:46.055Z,49.27
2023-02-27T06:45:13.992Z,49.30
2023-02-27T06:47:41.252Z,49.43
2023-02-27T06:50:11.276Z,49.62
2023-02-27T06:52:38.739Z,49.14
2023-02-27T06:55:06.997Z,49.13
2023-02-27T06:57:33.986Z,49.40
2023-02-27T07:00:01.195Z,49.48
2023-02-27T07:02:28.038Z,49.20
2023-02-27T07:04:55.248Z,49.14
2023-02-27T07:07:36.467Z,49.18
2023-02-27T07:10:05.932Z,49.13
2023-02-27T07:12:32.717Z,49.16
2023-02-27T07:15:00.170Z,49.52
2023-02-27T07:17:26.967Z,49.56
2023-02-27T07:19:54.654Z,49.17
2023-02-27T07:22:21.422Z,49.13
2023-02-27T07:24:48.465Z,48.95
2023-02-27T07:27:15.233Z,49.07
2023-02-27T07:29:42.306Z,49.33
2023-02-27T07:32:09.141Z,49.16
2023-02-27T07:34:36.155Z,49.33
2023-02-27T07:37:02.930Z,48.61
2023-02-27T07:39:30.014Z,48.79
2023-02-27T07:41:56.880Z,49.09
2023-02-27T07:44:23.949Z,49.23
2023-02-27T07:46:50.780Z,49.13
2023-02-27T07:49:17.924Z,49.29
2023-02-27T07:51:44.911Z,49.22
2023-02-27T07:54:11.978Z,49.53
2023-02-27T07:56:38.695Z,49.62
2023-02-27T07:59:05.765Z,48.83
2023-02-27T08:01:32.591Z,48.80
2023-02-27T08:03:59.606Z,48.58
2023-02-27T08:06:26.641Z,48.66
2023-02-27T08:08:53.919Z,48.60
2023-02-27T08:11:20.808Z,48.32
2023-02-27T08:14:00.092Z,48.95
2023-02-27T08:16:28.253Z,49.09
2023-02-27T08:18:55.658Z,48.75
2023-02-27T08:21:22.414Z,48.52
2023-02-27T08:23:49.499Z,48.71
2023-02-27T08:26:16.291Z,48.66
2023-02-27T08:28:43.369Z,48.92
2023-02-27T08:31:10.244Z,48.71
2023-02-27T08:33:37.364Z,48.52
2023-02-27T08:36:04.454Z,48.73
2023-02-27T08:38:31.718Z,48.65
2023-02-27T08:40:58.481Z,48.10
2023-02-27T08:43:25.873Z,48.09
2023-02-27T08:45:52.746Z,48.05
2023-02-27T08:48:19.914Z,48.27
2023-02-27T08:50:46.837Z,48.36
2023-02-27T08:53:14.122Z,48.58
2023-02-27T08:55:40.895Z,48.24
2023-02-27T08:58:08.294Z,48.01
2023-02-27T09:00:35.065Z,48.21
2023-02-27T09:03:02.262Z,48.47
2023-02-27T09:05:29.217Z,48.07
2023-02-27T09:07:56.282Z,48.23
2023-02-27T09:10:23.074Z,48.50
2023-02-27T09:12:50.291Z,48.11
2023-02-27T09:15:17.173Z,48.37
2023-02-27T09:17:44.247Z,48.24
2023-02-27T09:20:11.539Z,48.41
2023-02-27T09:22:39.025Z,48.27
2023-02-27T09:25:06.574Z,48.22
2023-02-27T09:27:34.357Z,48.66
2023-02-27T09:30:01.114Z,48.02
2023-02-27T09:32:28.656Z,48.26
2023-02-27T09:34:55.568Z,48.24
2023-02-27T09:37:24.984Z,48.23
2023-02-27T09:39:51.811Z,48.20
2023-02-27T09:42:20.949Z,48.34
2023-02-27T09:44:48.312Z,48.09
2023-02-27T09:47:21.475Z,48.31
2023-02-27T09:49:51.410Z,47.99
2023-02-27T09:52:18.475Z,48.31
2023-02-27T09:54:45.202Z,47.94
2023-02-27T09:57:16.087Z,47.43
2023-02-27T09:59:52.866Z,47.99
2023-02-27T10:02:43.319Z,47.61
2023-02-27T10:05:38.381Z,47.51
2023-02-27T10:08:21.996Z,47.38
2023-02-27T10:11:00.868Z,47.68
2023-02-27T10:13:33.881Z,47.33
2023-02-27T10:16:00.729Z,46.98
2023-02-27T10:18:32.732Z,47.44
2023-02-27T10:21:12.758Z,46.86
2023-02-27T10:23:56.649Z,46.32
2023-02-27T10:26:26.784Z,46.80
2023-02-27T10:28:53.863Z,47.04
2023-02-27T10:31:27.432Z,47.14
2023-02-27T10:33:54.984Z,47.14
2023-02-27T10:36:32.970Z,47.11
2023-02-27T10:39:04.087Z,46.93
2023-02-27T10:41:30.896Z,47.13
2023-02-27T10:43:58.572Z,47.04
2023-02-27T10:46:27.428Z,47.30
2023-02-27T10:48:54.927Z,47.27
2023-02-27T10:51:29.089Z,47.00
2023-02-27T10:54:35.095Z,46.86
2023-02-27T10:57:02.419Z,46.53
2023-02-27T10:59:30.681Z,46.81
2023-02-27T11:01:59.857Z,46.23
2023-02-27T11:04:35.194Z,46.73
2023-02-27T11:07:04.846Z,46.77
2023-02-27T11:09:35.267Z,46.17
2023-02-27T11:12:27.697Z,46.26
2023-02-27T11:14:56.293Z,45.76
2023-02-27T11:17:25.991Z,45.57
2023-02-27T11:19:53.130Z,46.12
2023-02-27T11:22:23.567Z,45.29
2023-02-27T11:24:51.844Z,45.95
2023-02-27T11:27:29.227Z,46.45
2023-02-27T11:30:07.792Z,45.66
2023-02-27T11:32:43.301Z,45.92
2023-02-27T11:35:29.535Z,45.93
2023-02-27T11:37:58.590Z,46.21
2023-02-27T11:40:33.674Z,46.20
2023-02-27T11:43:05.683Z,45.85
2023-02-27T11:46:05.859Z,45.30
2023-02-27T11:48:46.027Z,45.06
2023-02-27T11:51:32.008Z,45.71
2023-02-27T11:54:09.691Z,45.11
2023-02-27T11:56:53.501Z,45.05
2023-02-27T11:59:39.366Z,45.13
2023-02-27T12:02:18.020Z,45.10
2023-02-27T12:05:11.820Z,45.09
2023-02-27T12:07:54.149Z,44.68
2023-02-27T12:10:25.900Z,45.10
2023-02-27T12:13:06.848Z,45.32
2023-02-27T12:15:42.406Z,45.28
2023-02-27T12:18:39.264Z,45.05
2023-02-27T12:21:13.694Z,45.26
2023-02-27T12:23:50.905Z,45.32
2023-02-27T12:26:33.345Z,45.54
2023-02-27T12:29:02.500Z,45.50
2023-02-27T12:31:35.132Z,45.32
2023-02-27T12:34:11.189Z,44.75
2023-02-27T12:36:38.878Z,44.81
2023-02-27T12:39:06.649Z,44.46
2023-02-27T12:41:59.756Z,44.59
2023-02-27T12:44:29.508Z,44.62
2023-02-27T12:46:59.040Z,44.63
2023-02-27T12:49:56.651Z,44.36
2023-02-27T12:52:47.979Z,44.95
2023-02-27T12:55:21.026Z,43.99
2023-02-27T12:58:24.278Z,44.61
2023-02-27T13:01:01.792Z,44.59
2023-02-27T13:03:34.608Z,44.31
2023-02-27T13:06:20.274Z,45.43
2023-02-27T13:09:03.534Z,44.89
2023-02-27T13:11:43.583Z,44.66
2023-02-27T13:14:30.676Z,44.50
2023-02-27T13:17:07.826Z,45.40
2023-02-27T13:19:41.178Z,44.90
2023-02-27T13:22:20.448Z,45.21
2023-02-27T13:24:49.972Z,44.64
2023-02-27T13:27:24.168Z,44.94
2023-02-27T13:30:05.363Z,44.65
2023-02-27T13:32:44.498Z,44.65
2023-02-27T13:35:17.976Z,44.33
2023-02-27T13:38:00.091Z,44.09
2023-02-27T13:40:35.738Z,44.68
2023-02-27T13:43:04.302Z,44.17
2023-02-27T13:46:18.650Z,44.35
2023-02-27T13:48:52.116Z,44.24
2023-02-27T13:51:38.422Z,44.58
2023-02-27T13:54:14.804Z,44.82
2023-02-27T13:56:59.699Z,44.68
2023-02-27T13:59:37.043Z,44.54
2023-02-27T14:02:10.785Z,44.66
2023-02-27T14:04:48.640Z,44.71
2023-02-27T14:07:21.332Z,45.74
2023-02-27T14:09:50.477Z,45.84
2023-02-27T14:12:44.358Z,45.89
2023-02-27T14:15:24.988Z,45.51
2023-02-27T14:18:11.433Z,45.76
2023-02-27T14:20:42.905Z,45.88
2023-02-27T14:23:15.758Z,46.14
2023-02-27T14:25:56.796Z,45.66
2023-02-27T14:28:33.868Z,46.15
2023-02-27T14:31:06.034Z,45.61
2023-02-27T14:33:45.403Z,45.83
2023-02-27T14:36:19.341Z,46.06
2023-02-27T14:38:46.283Z,45.57
2023-02-27T14:41:45.022Z,46.05
2023-02-27T14:44:23.827Z,46.09
2023-02-27T14:46:51.283Z,45.72
2023-02-27T14:49:18.314Z,45.76
2023-02-27T14:51:45.408Z,45.48
2023-02-27T14:54:15.832Z,45.46
2023-02-27T14:56:56.600Z,45.29
2023-02-27T14:59:42.757Z,45.55
2023-02-27T15:02:25.083Z,44.99
2023-02-27T15:05:00.960Z,44.79
2023-02-27T15:07:32.417Z,45.37
2023-02-27T15:10:02.131Z,44.98
2023-02-27T15:12:30.927Z,44.88
2023-02-27T15:15:01.546Z,44.96
2023-02-27T15:17:39.868Z,45.57
2023-02-27T15:20:32.860Z,45.80
2023-02-27T15:23:01.739Z,46.14
2023-02-27T15:25:37.362Z,47.67
2023-02-27T15:28:07.070Z,49.97
2023-02-27T15:30:33.893Z,50.49
2023-02-27T15:33:02.084Z,49.53
2023-02-27T15:35:32.586Z,51.33
2023-02-27T15:38:00.347Z,51.45
2023-02-27T15:40:28.602Z,50.15
2023-02-27T15:42:55.907Z,49.93
2023-02-27T15:45:26.949Z,49.68
2023-02-27T15:47:53.997Z,48.73
2023-02-27T15:50:30.142Z,48.84
2023-02-27T15:53:05.538Z,48.97
2023-02-27T15:55:37.824Z,48.96
2023-02-27T15:58:34.210Z,48.86
2023-02-27T16:01:21.410Z,50.14
2023-02-27T16:03:50.515Z,49.17
2023-02-27T16:06:23.459Z,48.96
2023-02-27T16:08:52.595Z,48.69
2023-02-27T16:11:27.755Z,48.67
2023-02-27T16:13:55.022Z,47.93
2023-02-27T16:16:22.037Z,48.26
2023-02-27T16:18:50.722Z,48.10
2023-02-27T16:21:22.081Z,47.86
2023-02-27T16:23:49.939Z,47.70
2023-02-27T16:26:27.176Z,47.87
2023-02-27T16:28:58.059Z,47.27
2023-02-27T16:31:40.756Z,47.19
2023-02-27T16:34:13.970Z,47.58
2023-02-27T16:36:41.649Z,47.32
2023-02-27T16:39:12.638Z,47.27
2023-02-27T16:41:39.442Z,47.28
2023-02-27T16:44:07.685Z,46.85
2023-02-27T16:46:34.797Z,47.18
2023-02-27T16:49:14.146Z,46.89
2023-02-27T16:51:46.189Z,47.08
2023-02-27T16:54:14.095Z,46.23
2023-02-27T16:56:41.328Z,46.77
2023-02-27T16:59:16.024Z,46.36
2023-02-27T17:01:42.872Z,46.18
2023-02-27T17:04:24.678Z,46.36
2023-02-27T17:06:52.498Z,46.58
2023-02-27T17:09:19.693Z,46.68
2023-02-27T17:11:46.625Z,46.45
2023-02-27T17:14:13.682Z,46.43
2023-02-27T17:16:40.595Z,46.58
2023-02-27T17:19:08.334Z,46.59
2023-02-27T17:21:35.387Z,46.47
2023-02-27T17:24:02.581Z,46.84
2023-02-27T17:26:31.183Z,46.79
2023-02-27T17:28:58.640Z,46.77
2023-02-27T17:31:25.605Z,46.64
2023-02-27T17:33:53.783Z,46.82
2023-02-27T17:36:21.170Z,46.98
2023-02-27T17:38:49.077Z,46.89
2023-02-27T17:41:16.385Z,46.87
2023-02-27T17:43:43.510Z,46.91
2023-02-27T17:46:11.105Z,46.61
2023-02-27T17:48:38.410Z,46.75
2023-02-27T17:51:10.133Z,46.85
2023-02-27T17:53:40.367Z,47.05
2023-02-27T17:56:07.695Z,46.81
2023-02-27T17:58:35.038Z,47.03
2023-02-27T18:01:11.458Z,47.13
2023-02-27T18:03:38.749Z,47.13
2023-02-27T18:06:05.820Z,47.17
2023-02-27T18:08:33.077Z,47.11
2023-02-27T18:11:00.171Z,47.03
2023-02-27T18:13:27.522Z,46.88
2023-02-27T18:15:55.183Z,47.23
2023-02-27T18:18:22.642Z,47.08
2023-02-27T18:20:59.684Z,47.14
2023-02-27T18:23:26.937Z,46.76
2023-02-27T18:25:57.547Z,47.14
2023-02-27T18:28:24.719Z,47.07
2023-02-27T18:30:51.913Z,47.03
2023-02-27T18:33:19.889Z,47.11
2023-02-27T18:35:46.960Z,46.92
2023-02-27T18:38:14.146Z,47.20
2023-02-27T18:40:41.035Z,47.09
2023-02-27T18:43:09.704Z,47.08
2023-02-27T18:45:36.976Z,47.12
2023-02-27T18:48:04.134Z,47.12
2023-02-27T18:50:31.059Z,47.23
2023-02-27T18:52:59.175Z,47.22
2023-02-27T18:55:26.175Z,47.10
2023-02-27T18:57:53.285Z,47.22
2023-02-27T19:00:21.835Z,46.98
2023-02-27T19:02:48.958Z,46.72
2023-02-27T19:05:15.907Z,46.83
2023-02-27T19:07:43.041Z,47.13
2023-02-27T19:10:11.593Z,47.03
2023-02-27T19:12:38.740Z,46.91
2023-02-27T19:15:05.975Z,46.89
2023-02-27T19:17:33.676Z,46.54
2023-02-27T19:20:00.533Z,46.59
2023-02-27T19:22:29.528Z,46.53
2023-02-27T19:24:57.058Z,47.04
2023-02-27T19:27:24.289Z,47.00
2023-02-27T19:29:51.508Z,46.63
2023-02-27T19:32:18.702Z,46.72
2023-02-27T19:34:45.664Z,46.83
2023-02-27T19:37:12.874Z,47.12
2023-02-27T19:39:39.740Z,46.72
2023-02-27T19:42:06.816Z,46.88
2023-02-27T19:44:33.636Z,46.65
2023-02-27T19:47:01.073Z,47.03
2023-02-27T19:49:28.070Z,47.15
2023-02-27T19:51:55.293Z,47.30
2023-02-27T19:54:22.116Z,46.75
2023-02-27T19:56:49.237Z,46.75
2023-02-27T19:59:16.080Z,47.17
2023-02-27T20:01:43.116Z,46.92
2023-02-27T20:04:11.235Z,46.87
2023-02-27T20:06:42.214Z,46.85
2023-02-27T20:09:10.465Z,47.13
2023-02-27T20:11:37.575Z,46.81
2023-02-27T20:14:04.460Z,47.12
2023-02-27T20:16:35.588Z,47.24
2023-02-27T20:19:06.835Z,47.17
2023-02-27T20:21:34.192Z,46.98
2023-02-27T20:24:01.114Z,47.21
2023-02-27T20:26:28.525Z,47.23
2023-02-27T20:28:56.641Z,46.98
2023-02-27T20:31:25.820Z,47.30
2023-02-27T20:33:52.949Z,46.79
2023-02-27T20:36:20.280Z,46.99
2023-02-27T20:38:47.139Z,46.88
2023-02-27T20:41:19.839Z,46.89
2023-02-27T20:43:46.741Z,46.94
2023-02-27T20:46:21.602Z,47.06
2023-02-27T20:48:48.649Z,46.90
2023-02-27T20:51:21.241Z,46.71
2023-02-27T20:53:50.668Z,46.90
2023-02-27T20:56:22.500Z,46.88
2023-02-27T20:58:49.357Z,46.94
2023-02-27T21:01:16.895Z,47.01
2023-02-27T21:03:44.908Z,46.83
2023-02-27T21:06:13.486Z,46.91
2023-02-27T21:08:42.469Z,47.06
2023-02-27T21:11:14.096Z,46.71
2023-02-27T21:13:40.974Z,46.94
2023-02-27T21:16:09.468Z,46.90
2023-02-27T21:18:37.021Z,46.86
2023-02-27T21:21:08.691Z,46.86
2023-02-27T21:23:41.226Z,47.03
2023-02-27T21:26:09.347Z,47.11
2023-02-27T21:28:42.232Z,46.70
2023-02-27T21:31:09.334Z,46.99
2023-02-27T21:33:36.351Z,46.78
2023-02-27T21:36:03.644Z,46.99
2023-02-27T21:38:30.961Z,46.90
2023-02-27T21:40:58.466Z,46.82
2023-02-27T21:43:25.349Z,46.72
2023-02-27T21:45:52.444Z,46.83
2023-02-27T21:48:19.337Z,46.83
2023-02-27T21:50:46.458Z,46.73
2023-02-27T21:53:13.279Z,46.81
2023-02-27T21:55:40.316Z,46.70
2023-02-27T21:58:10.441Z,46.80
2023-02-27T22:00:37.731Z,46.82
2023-02-27T22:03:04.569Z,46.72
2023-02-27T22:05:31.869Z,46.79
2023-02-27T22:07:58.634Z,46.50
2023-02-27T22:10:25.737Z,46.75
2023-02-27T22:12:52.513Z,46.58
2023-02-27T22:15:19.828Z,47.14
2023-02-27T22:17:46.728Z,47.01
2023-02-27T22:20:13.809Z,46.49
2023-02-27T22:22:40.576Z,46.78
2023-02-27T22:25:07.957Z,46.91
2023-02-27T22:27:34.744Z,47.00
2023-02-27T22:30:01.800Z,46.80
2023-02-27T22:32:29.156Z,46.85
2023-02-27T22:34:58.535Z,46.71
2023-02-27T22:37:25.248Z,46.45
2023-02-27T22:39:52.452Z,46.82
2023-02-27T22:42:19.176Z,46.78
2023-02-27T22:44:46.200Z,46.42
2023-02-27T22:47:12.940Z,46.41
2023-02-27T22:49:40.029Z,46.48
2023-02-27T22:52:06.824Z,46.72
2023-02-27T22:54:33.912Z,46.31
2023-02-27T22:57:00.740Z,46.61
2023-02-27T22:59:27.972Z,46.66
2023-02-27T23:01:54.827Z,46.66
2023-02-27T23:04:22.400Z,46.14
2023-02-27T23:06:52.170Z,46.47
2023-02-27T23:09:20.659Z,46.79
2023-02-27T23:11:47.713Z,46.42
2023-02-27T23:14:15.059Z,46.69
2023-02-27T23:16:45.618Z,46.76
2023-02-27T23:19:14.677Z,46.56
2023-02-27T23:21:41.891Z,46.24
2023-02-27T23:24:16.892Z,46.70
2023-02-27T23:26:45.505Z,46.41
2023-02-27T23:29:12.691Z,46.32
2023-02-27T23:31:40.116Z,46.57
2023-02-27T23:34:07.282Z,46.54
2023-02-27T23:36:35.044Z,46.26
2023-02-27T23:39:02.956Z,46.57
2023-02-27T23:41:30.311Z,46.71
2023-02-27T23:44:16.239Z,46.16
2023-02-27T23:46:43.192Z,46.44
2023-02-27T23:49:10.462Z,46.68
2023-02-27T23:51:37.470Z,46.41
2023-02-27T23:54:04.640Z,46.60
2023-02-27T23:56:31.478Z,46.65
2023-02-27T23:59:04.452Z,46.63
